Terminal Aerodrome Forecast
Issued by NWS Duluth, MN

Home | Current Version | Previous Version | Text Only | Print | Product List | Glossary On
Versions: 1 2 3 4 5 6 7 8 9 10 11 12 13
241
FTUS43 KDLH 262337
TAFDLH
TAF
KDLH 262337Z 2700/2724 08015G25KT P6SM FEW120
     FM270200 08010KT P6SM SCT120
     FM271400 08013G22KT P6SM SCT250=

USA.gov is the U.S. government's official web portal to all federal, state and local government web resources and services.